Página principal
METAR-TAF:

METAR-TAF

Aeroportos :

Öskemen, Cazaquistão

latitude: 50-02-10N, longitude: 082-29-39E, altura: 286 m

Observação actual do tempo

O boletim foi feito há 15 minutos, às 12:30 UTC
Vento 14 kt de norte
Temperatura 27°C
Humidade 34%
Pressão 1006 hPa
Visibilidade 10 km ou mais
Nuvens fragmentadasa uma altura de 22000 ft

METAR: UASK 201230Z 36007MPS 9999 BKN220 27/10 Q1006 R30/090060 NOSIG RMK QFE729/0973

Hora: 18:45 (12:45 UTC)

Previsão

O boletim foi feito há 1 hora e 44 minutos, às 11:01 UTC
Previsão válida de 20 às 12 UTC a 20 às 21 UTC
Vento 12 kt de nor-noroeste com rajadas de 21 kt
Visibilidade 10 km ou mais
Nuvens dispersasa uma altura de 4000 ft
Nuvens fragmentadasa uma altura de 10000 ft
Temporariamente
de 20 às 12 UTC a 20 às 16 UTC
Vento 16 kt de norte com rajadas de 25 kt

TAF: UASK 201101Z 2012/2021 34006G11MPS 9999 SCT040 BKN100 TEMPO 2012/2016 36008G13MPS

Observações e previsões do tempo de mais de 4000 aeroportos (mensagens METAR e TAF).

As estações disponíveis são os pontos amarelos e vermelhos sobre o mapa.

Mova o rato sobre o mapa para ver o nome da estação.

Depois clique no ponto para visualizar as observações e previsões meteorológicas.

Para alterar o mapa : clique nos botões verdes com uma cruz preta para aumentar o zoom; no botão verde com uma pitada de zoom; ou nas setas verdes para mapas adjacentes.


METAR-TAF: